Time;durP1;ratioP1;P1;durP2;ratioP2;P2;SDS_P1;SDS_P2;PMS_P1;PMS_P2;Temp;Humidity;BMP_temperature;BMP_pressure;BME280_temperature;BME280_humidity;BME280_pressure;Samples;Min_cycle;Max_cycle;Signal;HPM_P1;HPM_P2
2022/03/28 00:01:37;;;;;;;14.00;7.45;;;7.50;99.90;;;;;;5051146;28;20181;-70
2022/03/28 00:04:03;;;;;;;11.57;7.38;;;7.40;99.90;;;;;;5051197;28;20222;-71
2022/03/28 00:06:29;;;;;;;14.70;7.15;;;7.50;99.90;;;;;;5051151;28;20201;-69
2022/03/28 00:08:55;;;;;;;11.68;6.85;;;7.50;99.90;;;;;;5051249;28;20169;-71
2022/03/28 00:11:20;;;;;;;12.98;7.75;;;7.50;99.90;;;;;;5051077;28;20165;-71
2022/03/28 00:13:47;;;;;;;12.63;7.55;;;7.60;99.90;;;;;;5051085;28;20193;-71
2022/03/28 00:16:13;;;;;;;13.18;6.88;;;7.70;99.90;;;;;;5050843;28;20169;-70
2022/03/28 00:18:39;;;;;;;10.68;7.32;;;7.70;99.90;;;;;;5051021;28;20187;-71
2022/03/28 00:21:05;;;;;;;11.27;7.45;;;7.70;99.90;;;;;;5050909;28;20627;-71
2022/03/28 00:23:32;;;;;;;12.05;6.93;;;7.60;99.90;;;;;;5050896;28;20168;-70
2022/03/28 00:26:01;;;;;;;9.77;6.32;;;7.60;99.90;;;;;;5050892;28;20157;-70
2022/03/28 00:28:28;;;;;;;11.65;6.78;;;7.50;99.90;;;;;;5068478;28;20255;-69
2022/03/28 00:30:53;;;;;;;9.70;7.05;;;7.50;99.90;;;;;;5070578;28;20169;-72
2022/03/28 00:33:19;;;;;;;12.50;7.18;;;7.50;99.90;;;;;;5070582;28;20188;-70
2022/03/28 00:35:45;;;;;;;11.95;7.10;;;7.50;99.90;;;;;;5070682;28;20161;-71
2022/03/28 00:38:11;;;;;;;9.73;6.28;;;7.40;99.90;;;;;;5070348;28;20614;-71
2022/03/28 00:40:39;;;;;;;12.27;6.80;;;7.40;99.90;;;;;;5070477;28;20161;-70
2022/03/28 00:43:08;;;;;;;14.48;6.82;;;7.40;99.90;;;;;;5070653;28;20173;-70
2022/03/28 00:45:38;;;;;;;10.35;7.55;;;7.40;99.90;;;;;;5070412;28;20176;-71
2022/03/28 00:48:06;;;;;;;14.52;7.22;;;7.40;99.90;;;;;;5070245;28;20239;-70
2022/03/28 00:50:33;;;;;;;12.15;6.88;;;7.40;99.90;;;;;;5070319;28;20156;-70
2022/03/28 00:53:00;;;;;;;13.60;7.20;;;7.40;99.90;;;;;;5070263;28;20157;-70
2022/03/28 00:55:26;;;;;;;9.45;6.35;;;7.30;99.90;;;;;;5070299;28;20164;-70
2022/03/28 00:57:52;;;;;;;11.70;7.88;;;7.30;99.90;;;;;;5070027;28;20230;-70
2022/03/28 01:00:18;;;;;;;9.43;7.18;;;7.20;99.90;;;;;;5069976;28;20212;-70
2022/03/28 01:02:46;;;;;;;12.38;6.88;;;7.10;99.90;;;;;;5070147;28;20161;-70
2022/03/28 01:05:13;;;;;;;12.35;6.85;;;7.20;99.90;;;;;;5070346;28;20161;-70
2022/03/28 01:07:40;;;;;;;16.60;6.75;;;7.30;99.90;;;;;;5069896;28;20200;-70
2022/03/28 01:10:10;;;;;;;13.63;7.50;;;7.20;99.90;;;;;;5070030;28;20165;-70
2022/03/28 01:12:42;;;;;;;12.65;7.28;;;7.10;99.90;;;;;;5069940;28;20160;-70
2022/03/28 01:15:10;;;;;;;11.30;6.95;;;7.10;99.90;;;;;;5069919;28;20164;-70
2022/03/28 01:20:28;;;;;;;12.55;7.07;;;7.20;99.90;;;;;;5070000;28;20291;-70
2022/03/28 01:22:54;;;;;;;11.90;7.22;;;7.10;99.90;;;;;;5069787;28;20161;-70
2022/03/28 01:25:23;;;;;;;13.77;6.38;;;7.10;99.90;;;;;;5069679;28;20181;-70
2022/03/28 01:27:50;;;;;;;16.10;7.65;;;7.00;99.90;;;;;;5065222;28;20591;-70
2022/03/28 01:30:16;;;;;;;15.82;6.95;;;7.00;99.90;;;;;;5069359;28;20187;-70
2022/03/28 01:32:42;;;;;;;15.05;7.72;;;7.00;99.90;;;;;;5069512;28;20157;-70
2022/03/28 01:35:08;;;;;;;10.95;7.15;;;7.00;99.90;;;;;;5069448;28;20220;-70
2022/03/28 01:37:34;;;;;;;15.35;7.53;;;7.00;99.90;;;;;;5069307;28;20726;-70
2022/03/28 01:40:01;;;;;;;11.13;6.70;;;7.00;99.90;;;;;;5069366;28;20155;-70
2022/03/28 01:42:27;;;;;;;12.18;8.23;;;7.00;99.90;;;;;;5069402;28;20218;-71
2022/03/28 01:44:52;;;;;;;8.93;5.85;;;7.10;99.90;;;;;;5069382;28;20184;-69
2022/03/28 01:47:18;;;;;;;10.00;6.57;;;7.00;99.90;;;;;;5069287;28;20203;-69
2022/03/28 01:49:44;;;;;;;12.05;6.88;;;7.00;99.90;;;;;;5069286;28;20169;-71
2022/03/28 01:52:10;;;;;;;12.77;7.75;;;6.90;99.90;;;;;;5069212;28;20172;-69
2022/03/28 01:54:36;;;;;;;10.45;6.72;;;6.90;99.90;;;;;;5069156;28;20161;-69
2022/03/28 01:57:09;;;;;;;14.98;7.60;;;6.70;99.90;;;;;;5068963;28;20234;-69
2022/03/28 01:59:35;;;;;;;12.07;6.40;;;6.80;99.90;;;;;;5068965;28;20218;-69
2022/03/28 02:02:01;;;;;;;11.52;7.60;;;6.70;99.90;;;;;;5069127;28;20181;-71
2022/03/28 02:04:26;;;;;;;12.85;6.75;;;6.70;99.90;;;;;;5068462;28;20212;-70
2022/03/28 02:06:52;;;;;;;13.43;7.43;;;6.60;99.90;;;;;;5068961;28;20196;-69
2022/03/28 02:09:18;;;;;;;10.00;6.72;;;6.70;99.90;;;;;;5069051;28;20157;-70
2022/03/28 02:11:44;;;;;;;16.48;6.13;;;6.70;99.90;;;;;;5051115;28;20168;-70
2022/03/28 02:14:10;;;;;;;10.50;6.05;;;6.70;99.90;;;;;;5068968;28;20164;-69
2022/03/28 02:16:36;;;;;;;11.80;6.35;;;6.70;99.90;;;;;;5068751;28;20196;-70
2022/03/28 02:19:02;;;;;;;11.63;6.55;;;6.60;99.90;;;;;;5068949;28;20191;-70
2022/03/28 02:21:28;;;;;;;13.75;6.25;;;6.60;99.90;;;;;;5068848;28;20239;-70
2022/03/28 02:23:53;;;;;;;11.63;6.55;;;6.60;99.90;;;;;;5068690;28;20192;-70
2022/03/28 02:26:19;;;;;;;11.07;6.47;;;6.70;99.90;;;;;;5068733;28;20184;-70
2022/03/28 02:28:45;;;;;;;12.95;6.80;;;6.60;99.90;;;;;;5068309;28;20200;-70
2022/03/28 02:31:11;;;;;;;14.20;6.60;;;6.60;99.90;;;;;;5068748;28;20163;-70
2022/03/28 02:33:37;;;;;;;11.90;7.35;;;6.60;99.90;;;;;;5068756;28;20172;-70
2022/03/28 02:36:04;;;;;;;10.93;6.90;;;6.60;99.90;;;;;;5068760;28;20157;-70
2022/03/28 02:38:30;;;;;;;10.75;7.15;;;6.60;99.90;;;;;;5068450;28;20192;-70
2022/03/28 02:40:56;;;;;;;13.43;7.72;;;6.60;99.90;;;;;;5050659;28;20171;-70
2022/03/28 02:43:23;;;;;;;12.40;6.93;;;6.70;99.90;;;;;;5068492;28;20161;-70
2022/03/28 02:45:49;;;;;;;11.55;6.55;;;6.70;99.90;;;;;;5068550;28;20149;-70
2022/03/28 02:48:15;;;;;;;11.68;6.35;;;6.80;99.90;;;;;;5068475;28;20247;-69
2022/03/28 02:50:40;;;;;;;10.00;6.20;;;6.70;99.90;;;;;;5068657;28;20637;-70
2022/03/28 02:53:06;;;;;;;11.52;6.30;;;6.70;99.90;;;;;;5068542;28;20160;-70
2022/03/28 02:55:32;;;;;;;14.68;6.82;;;6.70;99.90;;;;;;5068469;28;20192;-70
2022/03/28 02:57:58;;;;;;;10.13;6.25;;;6.60;99.90;;;;;;5068235;28;20200;-70
2022/03/28 03:00:24;;;;;;;8.98;6.07;;;6.60;99.90;;;;;;5068453;28;20165;-70
2022/03/28 03:02:51;;;;;;;14.13;6.95;;;6.60;99.90;;;;;;5068290;28;20216;-70
2022/03/28 03:05:17;;;;;;;13.32;5.90;;;6.50;99.90;;;;;;5068500;28;20179;-70
2022/03/28 03:07:42;;;;;;;10.00;7.07;;;6.50;99.90;;;;;;5068283;28;20192;-70
2022/03/28 03:10:09;;;;;;;13.00;6.80;;;6.50;99.90;;;;;;5068315;28;20172;-70
2022/03/28 03:12:34;;;;;;;11.18;6.30;;;6.60;99.90;;;;;;5068508;28;20169;-70
2022/03/28 03:15:00;;;;;;;9.85;6.10;;;6.70;99.90;;;;;;5069104;28;20164;-70
2022/03/28 03:17:26;;;;;;;11.45;6.30;;;6.70;99.90;;;;;;5072020;28;20767;-70
2022/03/28 03:19:52;;;;;;;11.18;6.93;;;6.70;99.90;;;;;;5071948;28;20152;-70
2022/03/28 03:22:18;;;;;;;11.85;6.65;;;6.60;99.90;;;;;;5071998;28;20168;-70
2022/03/28 03:24:45;;;;;;;9.48;6.20;;;6.50;99.90;;;;;;5071959;28;20157;-70
2022/03/28 03:27:13;;;;;;;12.15;6.15;;;6.50;99.90;;;;;;5071786;28;20192;-71
2022/03/28 03:29:39;;;;;;;8.82;5.95;;;6.40;99.90;;;;;;5071481;28;20184;-71
2022/03/28 03:32:05;;;;;;;10.10;6.03;;;6.20;99.90;;;;;;5071801;28;20181;-69
2022/03/28 03:34:32;;;;;;;20.77;6.35;;;6.00;99.90;;;;;;5071778;28;20247;-69
2022/03/28 03:36:59;;;;;;;11.20;6.00;;;5.90;99.90;;;;;;5071572;28;20254;-69
2022/03/28 03:39:26;;;;;;;16.75;7.53;;;5.80;99.90;;;;;;5071477;28;20164;-71
2022/03/28 03:41:52;;;;;;;10.52;6.10;;;5.70;99.90;;;;;;5071645;28;20176;-71
2022/03/28 03:44:19;;;;;;;14.90;7.97;;;5.50;99.90;;;;;;5071402;28;20153;-69
2022/03/28 03:46:46;;;;;;;15.02;7.35;;;5.30;99.90;;;;;;5071561;28;20555;-70
2022/03/28 03:49:12;;;;;;;11.55;7.38;;;5.20;99.90;;;;;;5071344;28;20160;-69
2022/03/28 03:51:39;;;;;;;15.10;7.72;;;5.20;99.90;;;;;;5071352;28;20183;-71
2022/03/28 03:54:05;;;;;;;10.73;6.63;;;5.10;99.90;;;;;;5071287;28;20183;-71
2022/03/28 03:56:31;;;;;;;14.57;7.05;;;5.10;99.90;;;;;;5071074;28;20199;-71
2022/03/28 03:58:57;;;;;;;14.35;7.25;;;5.00;99.90;;;;;;5071033;28;20271;-70
2022/03/28 04:01:26;;;;;;;17.52;7.13;;;5.00;99.90;;;;;;5071157;28;20187;-70
2022/03/28 04:03:53;;;;;;;16.63;7.03;;;4.90;99.90;;;;;;5071286;28;20153;-69
2022/03/28 04:06:19;;;;;;;9.40;6.10;;;4.80;99.90;;;;;;5071199;28;20567;-69
2022/03/28 04:08:45;;;;;;;11.25;7.47;;;4.70;99.90;;;;;;5070821;28;20246;-71
2022/03/28 04:11:12;;;;;;;13.50;6.63;;;4.70;99.90;;;;;;5070986;28;20164;-70
2022/03/28 04:13:37;;;;;;;11.70;7.10;;;4.60;99.90;;;;;;5070828;28;20161;-70
2022/03/28 04:16:04;;;;;;;15.15;7.05;;;4.60;99.90;;;;;;5070945;28;20654;-70
2022/03/28 04:18:30;;;;;;;11.20;7.28;;;4.60;99.90;;;;;;5070605;28;20322;-70
2022/03/28 04:20:56;;;;;;;11.23;6.55;;;4.50;99.90;;;;;;5070817;28;20156;-70
2022/03/28 04:23:25;;;;;;;11.00;6.50;;;4.50;99.90;;;;;;5070515;28;20153;-71
2022/03/28 04:25:51;;;;;;;13.88;6.95;;;4.40;99.90;;;;;;5070712;28;20161;-70
2022/03/28 04:28:18;;;;;;;21.63;8.00;;;4.40;99.90;;;;;;5069700;28;20673;-70
2022/03/28 04:30:44;;;;;;;11.80;7.55;;;4.30;99.90;;;;;;5070351;28;20195;-70
2022/03/28 04:33:11;;;;;;;14.02;8.63;;;4.30;99.90;;;;;;5070600;28;20168;-71
2022/03/28 04:35:39;;;;;;;11.75;7.75;;;4.20;99.90;;;;;;5070388;28;20161;-70
2022/03/28 04:38:09;;;;;;;11.70;7.68;;;4.20;99.90;;;;;;5070386;28;20208;-69
2022/03/28 04:40:37;;;;;;;21.67;8.80;;;4.20;99.90;;;;;;5070411;28;20164;-71
2022/03/28 04:43:03;;;;;;;14.18;8.02;;;4.10;99.90;;;;;;5070245;28;20161;-71
2022/03/28 04:45:30;;;;;;;17.05;7.93;;;4.00;99.90;;;;;;5070334;28;20152;-70
2022/03/28 04:48:00;;;;;;;15.40;9.98;;;4.00;99.90;;;;;;5069859;28;20279;-71
2022/03/28 04:50:26;;;;;;;16.05;7.45;;;4.00;99.90;;;;;;5069993;28;20172;-71
2022/03/28 04:52:52;;;;;;;15.27;8.88;;;4.00;99.90;;;;;;5052130;28;20177;-71
2022/03/28 04:55:18;;;;;;;19.73;9.00;;;4.00;99.90;;;;;;5069976;28;20161;-71
2022/03/28 04:57:44;;;;;;;19.05;8.80;;;4.00;99.90;;;;;;5051473;28;20236;-72
2022/03/28 05:00:11;;;;;;;14.05;7.88;;;4.10;99.90;;;;;;5069558;28;20220;-71
2022/03/28 05:02:38;;;;;;;16.63;8.38;;;4.10;99.90;;;;;;5069577;28;20172;-71
2022/03/28 05:05:05;;;;;;;14.95;7.72;;;4.20;99.90;;;;;;5050454;28;20168;-71
2022/03/28 05:07:31;;;;;;;16.42;8.07;;;4.30;99.90;;;;;;5052012;28;20177;-71
2022/03/28 05:09:58;;;;;;;13.93;8.82;;;4.30;99.90;;;;;;5069604;28;20196;-72
2022/03/28 05:12:25;;;;;;;16.10;8.88;;;4.40;99.90;;;;;;5069475;28;20157;-71
2022/03/28 05:14:51;;;;;;;15.60;9.18;;;4.50;99.90;;;;;;5069526;28;20163;-71
2022/03/28 05:17:22;;;;;;;16.35;9.07;;;4.60;99.90;;;;;;5069515;28;20188;-72
2022/03/28 05:19:49;;;;;;;15.27;8.73;;;4.80;99.90;;;;;;5069622;28;20192;-72
2022/03/28 05:22:15;;;;;;;14.65;8.32;;;4.90;99.90;;;;;;5069635;28;20602;-72
2022/03/28 05:24:40;;;;;;;18.60;9.10;;;5.20;99.90;;;;;;5069569;28;20192;-72
2022/03/28 05:27:06;;;;;;;17.27;8.18;;;5.30;99.90;;;;;;5051006;28;20172;-72
2022/03/28 05:29:32;;;;;;;21.50;9.07;;;5.50;99.90;;;;;;5068887;28;20196;-72
2022/03/28 05:31:58;;;;;;;19.38;9.38;;;5.80;99.90;;;;;;5069203;28;20152;-72
2022/03/28 05:34:24;;;;;;;18.23;8.65;;;6.50;99.90;;;;;;5069396;28;20161;-72
2022/03/28 05:36:50;;;;;;;18.10;8.75;;;7.30;99.90;;;;;;5069153;28;20188;-72
2022/03/28 05:39:16;;;;;;;14.65;7.80;;;8.00;99.90;;;;;;5068177;28;20188;-71
2022/03/28 05:41:42;;;;;;;14.18;8.30;;;8.90;99.90;;;;;;5051223;28;20176;-71
2022/03/28 05:44:08;;;;;;;11.07;7.72;;;9.70;99.90;;;;;;5068870;28;20157;-72
2022/03/28 05:46:33;;;;;;;18.30;9.20;;;10.10;99.90;;;;;;5068881;28;20277;-72
2022/03/28 05:48:59;;;;;;;16.02;8.85;;;10.50;99.90;;;;;;5068946;28;20208;-71
2022/03/28 05:51:25;;;;;;;22.05;9.48;;;10.70;99.90;;;;;;5069004;28;20228;-71
2022/03/28 05:53:51;;;;;;;22.80;9.15;;;10.50;99.90;;;;;;5069025;28;20157;-71
2022/03/28 05:56:17;;;;;;;19.77;8.98;;;10.50;99.90;;;;;;5068627;28;20165;-72
2022/03/28 05:58:43;;;;;;;21.20;8.88;;;11.00;99.90;;;;;;5068404;28;20212;-72
2022/03/28 06:01:09;;;;;;;17.10;8.48;;;11.40;99.90;;;;;;5068799;28;20169;-70
2022/03/28 06:03:37;;;;;;;16.35;8.52;;;11.80;99.90;;;;;;5068707;28;20180;-71
2022/03/28 06:06:05;;;;;;;18.67;9.85;;;11.60;99.90;;;;;;5050937;28;20240;-71
2022/03/28 06:08:32;;;;;;;20.77;9.43;;;10.80;99.90;;;;;;5051217;28;20188;-70
2022/03/28 06:10:57;;;;;;;13.85;8.88;;;9.80;99.90;;;;;;5068730;28;20172;-71
2022/03/28 06:13:23;;;;;;;15.20;8.35;;;9.40;99.90;;;;;;5068582;28;20165;-71
2022/03/28 06:15:49;;;;;;;13.70;8.25;;;9.30;99.90;;;;;;5068686;28;20191;-71
2022/03/28 06:18:15;;;;;;;17.38;9.10;;;9.20;99.90;;;;;;5068671;28;20212;-72
2022/03/28 06:20:41;;;;;;;19.65;10.02;;;9.30;99.90;;;;;;5068849;28;20167;-72
2022/03/28 06:23:09;;;;;;;14.38;9.23;;;9.20;99.90;;;;;;5068863;28;20180;-72
2022/03/28 06:25:35;;;;;;;18.67;8.75;;;9.10;99.90;;;;;;5068684;28;20313;-71
2022/03/28 06:28:01;;;;;;;18.52;9.40;;;9.00;99.90;;;;;;5068089;28;20185;-71
2022/03/28 06:30:27;;;;;;;17.58;9.77;;;9.10;99.90;;;;;;5068517;28;20175;-72
2022/03/28 06:32:53;;;;;;;15.15;9.88;;;9.10;99.90;;;;;;5068649;28;20534;-71
2022/03/28 06:35:19;;;;;;;19.98;9.63;;;9.40;99.90;;;;;;5068762;28;20247;-71
2022/03/28 06:37:45;;;;;;;15.57;9.00;;;9.80;99.90;;;;;;5068304;28;20188;-71
2022/03/28 06:40:12;;;;;;;17.90;9.50;;;10.10;99.90;;;;;;5068500;28;20227;-71
2022/03/28 06:42:38;;;;;;;18.85;9.27;;;10.20;99.90;;;;;;5068683;28;20584;-71
2022/03/28 06:45:05;;;;;;;14.73;9.27;;;10.50;99.90;;;;;;5068739;28;20171;-72
2022/03/28 06:47:30;;;;;;;18.05;10.45;;;11.50;99.90;;;;;;5068630;28;20165;-71
2022/03/28 06:49:56;;;;;;;18.77;10.48;;;12.90;99.90;;;;;;5068977;28;20258;-73
2022/03/28 06:52:22;;;;;;;20.30;11.35;;;14.00;99.90;;;;;;5072554;28;20161;-73
2022/03/28 06:54:48;;;;;;;19.40;8.95;;;14.30;99.10;;;;;;5072377;28;20163;-73
2022/03/28 06:57:13;;;;;;;13.13;8.70;;;14.20;98.80;;;;;;5072251;28;20184;-72
2022/03/28 06:59:40;;;;;;;12.38;7.57;;;13.70;98.90;;;;;;5072111;28;20220;-72
2022/03/28 07:02:06;;;;;;;12.27;7.55;;;13.70;99.30;;;;;;5072318;28;20167;-71
2022/03/28 07:04:32;;;;;;;11.07;7.47;;;15.60;96.40;;;;;;5072216;28;20207;-71
2022/03/28 07:06:58;;;;;;;11.73;7.43;;;16.80;94.70;;;;;;5072177;28;20157;-71
2022/03/28 07:09:24;;;;;;;13.25;8.15;;;17.90;93.00;;;;;;5071936;28;20252;-71
2022/03/28 07:11:50;;;;;;;12.02;8.10;;;18.80;92.10;;;;;;5072281;28;20172;-71
2022/03/28 07:14:17;;;;;;;20.85;9.85;;;19.80;90.80;;;;;;5072001;28;20209;-71
2022/03/28 07:16:43;;;;;;;19.85;9.40;;;21.00;90.20;;;;;;5071978;28;20200;-71
2022/03/28 07:19:09;;;;;;;17.30;9.27;;;21.20;88.60;;;;;;5071788;28;20201;-72
2022/03/28 07:21:35;;;;;;;18.92;10.40;;;20.50;89.60;;;;;;5071662;28;20195;-72
2022/03/28 07:24:01;;;;;;;19.40;8.93;;;19.80;90.00;;;;;;5053670;28;20203;-71
2022/03/28 07:26:27;;;;;;;14.75;8.57;;;20.40;88.50;;;;;;5071165;28;20161;-71
2022/03/28 07:28:58;;;;;;;16.58;9.52;;;20.20;88.70;;;;;;5071137;28;20181;-71
2022/03/28 07:31:24;;;;;;;13.85;9.15;;;19.40;90.30;;;;;;5071613;28;20164;-71
2022/03/28 07:33:49;;;;;;;14.15;8.63;;;18.90;91.20;;;;;;5071409;28;20207;-71
2022/03/28 07:36:15;;;;;;;19.75;9.45;;;19.10;90.20;;;;;;5071671;28;20165;-71
2022/03/28 07:38:41;;;;;;;14.23;9.32;;;18.30;91.50;;;;;;5071555;28;20220;-71
2022/03/28 07:41:08;;;;;;;16.38;8.55;;;18.50;91.80;;;;;;5071462;28;20161;-71
2022/03/28 07:43:34;;;;;;;15.32;7.82;;;19.70;90.60;;;;;;5071350;28;20193;-72
2022/03/28 07:46:00;;;;;;;19.60;9.15;;;20.20;89.40;;;;;;5071593;28;20168;-72
2022/03/28 07:48:27;;;;;;;12.45;8.25;;;20.60;88.50;;;;;;5071462;28;20196;-71
2022/03/28 07:50:53;;;;;;;19.80;8.70;;;21.30;87.50;;;;;;5071371;28;20177;-71
2022/03/28 07:53:19;;;;;;;15.70;8.30;;;20.90;87.10;;;;;;5071337;28;20208;-71
2022/03/28 07:55:45;;;;;;;11.48;7.75;;;20.80;88.30;;;;;;5071293;28;20192;-71
2022/03/28 07:58:12;;;;;;;13.15;8.20;;;21.60;85.70;;;;;;5071076;28;20215;-71
2022/03/28 08:00:39;;;;;;;18.02;8.80;;;22.50;85.90;;;;;;5071109;28;20164;-71
2022/03/28 08:03:07;;;;;;;16.05;9.07;;;23.20;83.90;;;;;;5070009;28;20282;-71
2022/03/28 08:05:33;;;;;;;14.27;8.43;;;22.80;83.40;;;;;;5071181;28;20626;-71
2022/03/28 08:08:00;;;;;;;10.95;8.45;;;23.60;81.40;;;;;;5070997;28;20184;-71
2022/03/28 08:10:26;;;;;;;11.93;8.63;;;23.80;80.30;;;;;;5071003;28;20157;-72
2022/03/28 08:12:52;;;;;;;18.63;9.20;;;23.30;81.60;;;;;;5070937;28;20188;-71
2022/03/28 08:15:19;;;;;;;16.85;9.13;;;22.60;83.80;;;;;;5071181;28;20161;-71
2022/03/28 08:17:48;;;;;;;18.60;9.10;;;21.70;85.70;;;;;;5071021;28;20192;-71
2022/03/28 08:20:14;;;;;;;13.13;8.45;;;21.40;86.30;;;;;;5070917;28;20168;-71
2022/03/28 08:22:49;;;;;;;17.38;9.52;;;20.90;86.60;;;;;;5070570;28;20282;-71
2022/03/28 08:25:16;;;;;;;14.18;8.98;;;21.50;86.10;;;;;;5070755;28;20159;-71
2022/03/28 08:27:42;;;;;;;16.25;9.63;;;22.60;84.10;;;;;;5070552;28;20180;-70
2022/03/28 08:30:09;;;;;;;16.48;10.00;;;22.30;84.10;;;;;;5070514;28;20198;-70
2022/03/28 08:32:35;;;;;;;27.63;10.93;;;21.40;86.60;;;;;;5070492;28;20212;-70
2022/03/28 08:35:02;;;;;;;20.63;10.43;;;22.30;83.80;;;;;;5070382;28;20160;-71
2022/03/28 08:37:28;;;;;;;14.82;9.35;;;23.30;82.80;;;;;;5070450;28;20184;-72
2022/03/28 08:39:57;;;;;;;16.95;10.07;;;22.90;83.70;;;;;;5070416;28;20159;-71
2022/03/28 08:42:24;;;;;;;14.77;10.25;;;22.90;84.10;;;;;;5070434;28;20153;-71
2022/03/28 08:44:50;;;;;;;14.45;9.48;;;22.40;85.40;;;;;;5070496;28;20156;-71
2022/03/28 08:47:23;;;;;;;18.23;10.45;;;22.60;84.70;;;;;;5070280;28;20179;-72
2022/03/28 08:49:53;;;;;;;14.93;10.13;;;22.50;84.50;;;;;;5068314;28;20159;-71
2022/03/28 08:52:20;;;;;;;15.68;9.70;;;21.90;86.10;;;;;;5070911;28;20176;-71
2022/03/28 08:54:48;;;;;;;14.77;10.18;;;22.20;86.10;;;;;;5066370;28;20211;-72
2022/03/28 08:57:15;;;;;;;14.10;9.98;;;22.60;85.70;;;;;;5071018;28;20189;-72
2022/03/28 08:59:41;;;;;;;20.23;9.68;;;23.00;84.40;;;;;;5084401;28;20231;-71
2022/03/28 09:02:49;;;;;;;11.77;8.85;;;23.00;85.10;;;;;;5077933;28;20191;-71
2022/03/28 09:05:17;;;;;;;14.05;9.52;;;23.70;83.60;;;;;;5069667;28;20204;-72
2022/03/28 09:07:44;;;;;;;12.90;8.00;;;23.20;83.80;;;;;;5084395;28;20477;-71
2022/03/28 09:10:17;;;;;;;13.90;8.85;;;23.20;83.60;;;;;;5078771;28;20606;-71
2022/03/28 09:13:06;;;;;;;14.15;8.38;;;23.70;84.50;;;;;;5074105;28;20200;-71
2022/03/28 09:16:08;;;;;;;11.20;7.20;;;24.50;81.60;;;;;;5060230;28;20244;-72
2022/03/28 09:18:35;;;;;;;12.93;7.22;;;24.00;82.10;;;;;;4995666;28;20212;-72
2022/03/28 09:21:05;;;;;;;14.98;8.32;;;23.80;84.00;;;;;;5004035;28;20226;-72
2022/03/28 09:23:39;;;;;;;13.10;8.30;;;23.20;85.30;;;;;;4975375;28;20636;-71
2022/03/28 09:26:21;;;;;;;10.38;7.50;;;24.00;83.10;;;;;;5004831;28;20218;-72
2022/03/28 09:28:49;;;;;;;12.93;8.80;;;24.30;82.20;;;;;;4996733;28;20871;-71
2022/03/28 09:31:18;;;;;;;15.07;8.38;;;24.80;81.60;;;;;;5004190;28;20209;-72
2022/03/28 09:34:03;;;;;;;10.77;7.40;;;25.30;79.60;;;;;;4992821;28;20185;-72
2022/03/28 09:36:48;;;;;;;14.57;7.70;;;25.70;79.00;;;;;;4996013;28;20208;-72
2022/03/28 09:39:20;;;;;;;12.77;7.10;;;24.70;80.20;;;;;;5003933;28;20197;-72
2022/03/28 09:42:00;;;;;;;10.88;7.53;;;25.30;79.60;;;;;;4993770;28;20173;-72
2022/03/28 09:44:36;;;;;;;11.52;6.78;;;25.30;79.00;;;;;;4995518;28;20181;-72
2022/03/28 09:47:14;;;;;;;13.65;6.63;;;25.90;79.00;;;;;;4987745;28;20618;-72
2022/03/28 09:49:42;;;;;;;11.38;6.65;;;26.10;76.90;;;;;;4978269;28;20174;-72
2022/03/28 09:52:11;;;;;;;10.13;7.15;;;26.10;78.60;;;;;;5017487;28;20219;-72
2022/03/28 09:54:45;;;;;;;9.55;6.57;;;26.40;76.70;;;;;;5078819;28;20175;-72
2022/03/28 09:57:13;;;;;;;14.15;7.40;;;26.10;77.10;;;;;;5078088;28;20221;-72
2022/03/28 09:59:41;;;;;;;11.30;7.38;;;24.30;79.30;;;;;;5055775;28;21593;-71
2022/03/28 10:02:21;;;;;;;12.65;8.43;;;23.40;80.50;;;;;;5069264;28;20200;-72
2022/03/28 10:04:50;;;;;;;14.18;7.45;;;24.40;81.80;;;;;;5075944;28;20202;-72
2022/03/28 10:07:18;;;;;;;12.02;7.72;;;25.30;78.40;;;;;;5081181;28;20160;-72
2022/03/28 10:09:44;;;;;;;15.50;7.50;;;25.70;79.30;;;;;;5079107;28;20171;-72
2022/03/28 10:12:10;;;;;;;11.25;6.68;;;25.80;77.80;;;;;;5081893;28;20171;-72
2022/03/28 10:14:37;;;;;;;11.15;6.85;;;24.70;81.10;;;;;;5075439;28;20195;-73
2022/03/28 10:17:05;;;;;;;12.77;7.82;;;24.50;79.90;;;;;;5072324;28;20835;-72
2022/03/28 10:19:33;;;;;;;15.05;7.80;;;23.70;83.10;;;;;;5077055;28;20198;-72
2022/03/28 10:22:03;;;;;;;17.73;7.70;;;23.80;80.80;;;;;;5076151;28;20160;-73
2022/03/28 10:24:34;;;;;;;10.35;7.18;;;23.80;82.10;;;;;;5073801;28;20161;-73
2022/03/28 10:27:02;;;;;;;12.93;7.90;;;25.30;79.40;;;;;;5073467;28;20168;-73
2022/03/28 10:29:39;;;;;;;9.98;7.25;;;26.50;79.00;;;;;;5078401;28;20223;-72
2022/03/28 10:32:15;;;;;;;12.30;7.43;;;26.20;75.70;;;;;;5073158;28;20187;-73
2022/03/28 10:34:46;;;;;;;12.95;7.03;;;24.70;78.00;;;;;;5081487;28;20201;-73
2022/03/28 10:37:34;;;;;;;10.82;7.10;;;24.00;78.80;;;;;;5071116;28;20195;-73
2022/03/28 10:40:14;;;;;;;9.90;7.05;;;23.00;81.50;;;;;;5080918;28;20187;-73
2022/03/28 10:43:11;;;;;;;14.30;7.45;;;23.10;82.40;;;;;;5073068;28;20164;-72
2022/03/28 10:45:51;;;;;;;10.73;6.78;;;23.10;78.40;;;;;;5038834;28;20170;-75
2022/03/28 10:48:35;;;;;;;12.32;6.43;;;22.40;81.00;;;;;;5070789;28;20192;-75
2022/03/28 10:51:13;;;;;;;11.45;7.25;;;23.10;80.50;;;;;;5083870;28;20242;-76
2022/03/28 10:53:42;;;;;;;10.82;6.93;;;23.10;79.40;;;;;;5052423;28;20235;-75
2022/03/28 10:56:13;;;;;;;15.20;6.97;;;22.90;78.10;;;;;;5076301;28;20636;-76
2022/03/28 10:58:42;;;;;;;14.35;7.53;;;22.30;78.50;;;;;;5080761;28;20227;-75
2022/03/28 11:01:08;;;;;;;10.25;7.20;;;22.40;79.50;;;;;;5084248;28;20229;-75
2022/03/28 11:03:38;;;;;;;10.10;7.10;;;22.40;79.20;;;;;;5069483;28;20218;-75
2022/03/28 11:06:05;;;;;;;12.52;7.50;;;22.80;76.80;;;;;;5072637;28;20165;-75
2022/03/28 11:08:39;;;;;;;9.98;7.18;;;22.40;77.80;;;;;;5079034;28;20198;-75
2022/03/28 11:11:24;;;;;;;11.70;7.70;;;22.20;77.90;;;;;;5083176;28;20202;-75
2022/03/28 11:14:10;;;;;;;12.77;7.97;;;22.50;75.10;;;;;;5059987;28;20191;-75
2022/03/28 11:16:44;;;;;;;12.02;8.20;;;22.90;78.40;;;;;;5075515;28;20171;-75
2022/03/28 11:19:29;;;;;;;11.57;7.78;;;23.50;79.80;;;;;;5083938;28;20171;-75
2022/03/28 11:22:08;;;;;;;12.95;7.72;;;23.90;79.30;;;;;;5074745;28;20167;-75
2022/03/28 11:24:58;;;;;;;9.50;7.38;;;24.30;76.30;;;;;;5075772;28;20617;-75
2022/03/28 11:27:30;;;;;;;15.52;8.10;;;23.60;78.10;;;;;;5084483;28;20195;-76
2022/03/28 11:30:03;;;;;;;11.27;7.95;;;23.50;77.00;;;;;;5074126;28;20463;-75
2022/03/28 11:32:32;;;;;;;12.85;8.18;;;23.40;78.90;;;;;;5060969;28;20205;-76
2022/03/28 11:34:59;;;;;;;10.93;8.15;;;23.80;78.30;;;;;;5078621;28;20164;-75
2022/03/28 11:37:28;;;;;;;10.80;7.78;;;24.20;78.60;;;;;;5072311;28;20192;-75
2022/03/28 11:40:05;;;;;;;12.82;7.75;;;24.60;76.80;;;;;;5084376;28;20177;-76
2022/03/28 11:42:33;;;;;;;14.93;8.00;;;25.50;75.20;;;;;;5082088;28;20199;-76
2022/03/28 11:45:07;;;;;;;13.20;8.57;;;25.20;75.20;;;;;;5075581;28;20164;-76
2022/03/28 11:47:35;;;;;;;15.23;8.75;;;25.20;72.50;;;;;;5058910;28;20226;-76
2022/03/28 11:50:03;;;;;;;14.32;7.75;;;25.40;72.60;;;;;;5082197;28;20199;-76
2022/03/28 11:52:31;;;;;;;11.95;8.25;;;25.00;73.10;;;;;;5070889;28;20168;-75
2022/03/28 11:54:58;;;;;;;11.38;8.38;;;25.00;73.10;;;;;;5086285;28;20163;-75
2022/03/28 12:00:18;;;;;;;10.20;7.38;;;24.40;73.60;;;;;;5080635;28;20254;-75
2022/03/28 12:02:53;;;;;;;14.43;8.35;;;24.90;73.50;;;;;;5064544;28;20188;-76
2022/03/28 12:05:26;;;;;;;13.52;8.82;;;25.30;73.60;;;;;;5072499;28;20160;-75
2022/03/28 12:07:53;;;;;;;14.25;8.88;;;24.70;74.00;;;;;;5066739;28;20183;-76
2022/03/28 12:10:28;;;;;;;12.27;8.13;;;24.30;76.10;;;;;;5080309;28;20781;-76
2022/03/28 12:12:57;;;;;;;12.23;7.63;;;24.30;75.20;;;;;;5075920;28;20199;-75
2022/03/28 12:15:31;;;;;;;15.23;8.27;;;24.20;76.50;;;;;;5087215;28;20167;-76
2022/03/28 12:18:02;;;;;;;14.23;8.77;;;25.20;74.00;;;;;;5077392;28;20191;-75
2022/03/28 12:20:32;;;;;;;15.20;8.90;;;24.70;73.80;;;;;;5079057;28;20160;-76
2022/03/28 12:22:58;;;;;;;14.13;8.18;;;24.50;73.60;;;;;;5068807;28;20200;-76
2022/03/28 12:25:32;;;;;;;19.77;7.85;;;23.80;74.90;;;;;;5066229;28;20161;-75
2022/03/28 12:28:00;;;;;;;15.07;8.02;;;22.80;77.00;;;;;;5066788;28;20305;-76
2022/03/28 12:30:51;;;;;;;14.63;8.02;;;21.60;77.00;;;;;;5066602;28;20231;-76
2022/03/28 12:33:18;;;;;;;10.65;7.53;;;21.30;79.00;;;;;;5049186;28;20211;-76
2022/03/28 12:35:49;;;;;;;9.80;7.22;;;21.30;82.20;;;;;;5065281;28;20188;-77
2022/03/28 12:38:21;;;;;;;17.55;8.30;;;21.30;83.50;;;;;;5069250;28;20230;-76
2022/03/28 12:40:54;;;;;;;13.95;8.48;;;21.20;80.80;;;;;;5079380;28;20197;-76
2022/03/28 12:43:23;;;;;;;16.23;8.48;;;21.20;81.50;;;;;;5049643;28;20253;-76
2022/03/28 12:45:52;;;;;;;16.42;8.77;;;21.20;85.10;;;;;;5066792;28;20208;-75
2022/03/28 12:48:18;;;;;;;15.13;8.15;;;21.10;80.70;;;;;;5052980;28;20304;-74
2022/03/28 12:51:00;;;;;;;11.40;8.10;;;20.90;81.80;;;;;;5063680;28;20222;-74
2022/03/28 12:53:30;;;;;;;13.25;8.20;;;20.80;81.30;;;;;;5073020;28;20207;-74